createdAt,value
2018-06-01T00:01:26.744Z,12.23
2018-06-01T00:03:54.227Z,12.57
2018-06-01T00:06:21.732Z,15.70
2018-06-01T00:08:49.281Z,15.40
2018-06-01T00:11:17.160Z,12.40
2018-06-01T00:13:44.713Z,13.70
2018-06-01T00:16:13.028Z,13.93
2018-06-01T00:18:40.593Z,12.20
2018-06-01T00:21:08.048Z,14.00
2018-06-01T00:23:35.562Z,14.47
2018-06-01T00:26:03.779Z,16.80
2018-06-01T00:28:31.287Z,13.47
2018-06-01T00:30:59.303Z,13.80
2018-06-01T00:33:26.874Z,14.87
2018-06-01T00:35:54.582Z,11.53
2018-06-01T00:38:22.061Z,12.07
2018-06-01T00:40:49.599Z,12.07
2018-06-01T00:43:17.168Z,11.10
2018-06-01T00:45:45.459Z,11.50
2018-06-01T00:48:13.738Z,11.20
2018-06-01T00:50:42.053Z,21.03
2018-06-01T00:53:09.618Z,13.60
2018-06-01T00:55:37.155Z,14.90
2018-06-01T00:58:04.715Z,22.87
2018-06-01T01:00:32.284Z,12.03
2018-06-01T01:02:59.843Z,11.83
2018-06-01T01:05:27.328Z,14.90
2018-06-01T01:07:54.805Z,17.13
2018-06-01T01:10:22.328Z,12.43
2018-06-01T01:12:49.905Z,13.17
2018-06-01T01:15:17.432Z,12.87
2018-06-01T01:17:44.922Z,12.07
2018-06-01T01:20:12.499Z,12.63
2018-06-01T01:22:39.980Z,11.70
2018-06-01T01:25:08.216Z,11.53
2018-06-01T01:27:35.720Z,11.57
2018-06-01T01:30:03.273Z,11.53
2018-06-01T01:32:30.784Z,11.87
2018-06-01T01:34:58.270Z,14.60
2018-06-01T01:37:34.631Z,12.57
2018-06-01T01:40:02.097Z,11.43
2018-06-01T01:42:29.551Z,20.03
2018-06-01T01:44:57.115Z,11.67
2018-06-01T01:47:24.568Z,11.90
2018-06-01T01:50:00.797Z,11.90
2018-06-01T01:52:28.265Z,12.67
2018-06-01T01:54:55.752Z,12.90
2018-06-01T01:57:23.201Z,12.80
2018-06-01T01:59:50.660Z,15.40
2018-06-01T02:02:24.544Z,12.80
2018-06-01T02:04:52.024Z,11.47
2018-06-01T02:07:19.652Z,17.40
2018-06-01T02:09:47.124Z,20.77
2018-06-01T02:12:14.607Z,13.70
2018-06-01T02:14:42.836Z,13.60
2018-06-01T02:17:10.305Z,14.07
2018-06-01T02:19:37.795Z,14.27
2018-06-01T02:22:05.252Z,14.20
2018-06-01T02:24:32.721Z,14.70
2018-06-01T02:27:00.188Z,15.70
2018-06-01T02:29:27.649Z,16.90
2018-06-01T02:31:55.876Z,14.67
2018-06-01T02:34:23.360Z,14.10
2018-06-01T02:36:52.332Z,16.37
2018-06-01T02:39:19.817Z,15.97
2018-06-01T02:41:48.064Z,15.23
2018-06-01T02:44:15.645Z,16.10
2018-06-01T02:46:43.104Z,13.37
2018-06-01T02:49:10.567Z,17.30
2018-06-01T02:51:38.032Z,17.13
2018-06-01T02:54:05.505Z,16.33
2018-06-01T02:56:32.948Z,18.33
2018-06-01T02:59:00.413Z,18.90
2018-06-01T03:01:27.871Z,14.43
2018-06-01T03:03:55.367Z,14.47
2018-06-01T03:06:22.830Z,17.53
2018-06-01T03:08:50.305Z,15.27
2018-06-01T03:11:18.056Z,14.43
2018-06-01T03:13:45.525Z,18.20
2018-06-01T03:16:13.000Z,21.20
2018-06-01T03:18:40.460Z,13.97
2018-06-01T03:21:07.912Z,16.67
2018-06-01T03:23:35.376Z,21.10
2018-06-01T03:26:03.607Z,17.33
2018-06-01T03:28:31.099Z,14.67
2018-06-01T03:30:58.565Z,14.53
2018-06-01T03:33:27.544Z,15.90
2018-06-01T03:35:55.016Z,17.13
2018-06-01T03:38:22.484Z,22.97
2018-06-01T03:40:50.728Z,17.17
2018-06-01T03:43:18.202Z,13.90
2018-06-01T03:45:45.669Z,15.30
2018-06-01T03:48:13.128Z,14.50
2018-06-01T03:50:40.593Z,18.73
2018-06-01T03:53:08.829Z,14.30
2018-06-01T03:55:36.316Z,17.23
2018-06-01T03:58:03.775Z,16.13
2018-06-01T04:00:31.254Z,14.30
2018-06-01T04:02:59.491Z,16.90
2018-06-01T04:05:26.937Z,18.13
2018-06-01T04:07:54.400Z,14.23
2018-06-01T04:10:21.877Z,21.00
2018-06-01T04:12:51.048Z,15.47
2018-06-01T04:15:18.526Z,15.70
2018-06-01T04:17:45.980Z,16.17
2018-06-01T04:20:13.465Z,14.73
2018-06-01T04:22:41.685Z,17.23
2018-06-01T04:25:09.156Z,16.00
2018-06-01T04:27:36.628Z,16.03
2018-06-01T04:30:04.077Z,14.77
2018-06-01T04:32:31.527Z,20.03
2018-06-01T04:34:59.012Z,25.33
2018-06-01T04:37:26.468Z,18.30
2018-06-01T04:39:53.931Z,17.73
2018-06-01T04:42:22.163Z,17.17
2018-06-01T04:44:49.637Z,24.43
2018-06-01T04:47:17.096Z,19.00
2018-06-01T04:49:44.572Z,17.00
2018-06-01T04:52:12.031Z,20.93
2018-06-01T04:54:39.495Z,18.20
2018-06-01T04:57:08.465Z,16.67
2018-06-01T04:59:35.945Z,18.37
2018-06-01T05:02:03.401Z,18.90
2018-06-01T05:04:30.868Z,17.53
2018-06-01T05:06:58.328Z,17.83
2018-06-01T05:09:26.557Z,16.33
2018-06-01T05:11:54.044Z,16.33
2018-06-01T05:14:21.506Z,16.53
2018-06-01T05:16:48.968Z,15.83
2018-06-01T05:19:16.433Z,14.77
2018-06-01T05:21:43.896Z,17.73
2018-06-01T05:24:12.132Z,20.03
2018-06-01T05:26:39.608Z,16.10
2018-06-01T05:29:07.064Z,18.33
2018-06-01T05:31:34.523Z,19.13
2018-06-01T05:34:01.985Z,20.23
2018-06-01T05:36:29.452Z,18.17
2018-06-01T05:38:56.916Z,16.00
2018-06-01T05:41:25.160Z,15.50
2018-06-01T05:43:52.612Z,17.47
2018-06-01T05:46:20.088Z,17.93
2018-06-01T05:48:47.599Z,21.60
2018-06-01T05:51:15.116Z,16.77
2018-06-01T05:53:43.365Z,18.40
2018-06-01T05:56:10.828Z,18.87
2018-06-01T05:58:38.284Z,20.83
2018-06-01T06:01:05.762Z,14.93
2018-06-01T06:03:33.984Z,20.27
2018-06-01T06:06:01.469Z,17.97
2018-06-01T06:08:28.945Z,17.23
2018-06-01T06:10:56.424Z,18.27
2018-06-01T06:13:23.885Z,21.43
2018-06-01T06:15:51.340Z,15.03
2018-06-01T06:18:18.793Z,18.57
2018-06-01T06:20:46.262Z,17.20
2018-06-01T06:23:14.486Z,17.87
2018-06-01T06:25:41.979Z,14.60
2018-06-01T06:28:09.468Z,16.30
2018-06-01T06:30:37.723Z,18.70
2018-06-01T06:33:05.991Z,15.43
2018-06-01T06:35:33.501Z,16.83
2018-06-01T06:38:00.968Z,14.83
2018-06-01T06:40:28.429Z,15.57
2018-06-01T06:42:55.891Z,14.90
2018-06-01T06:45:23.366Z,15.47
2018-06-01T06:47:50.824Z,14.67
2018-06-01T06:50:18.281Z,13.43
2018-06-01T06:52:45.757Z,17.73
2018-06-01T06:55:13.224Z,15.97
2018-06-01T06:57:41.460Z,22.87
2018-06-01T07:00:09.905Z,25.07
2018-06-01T07:02:37.404Z,22.70
2018-06-01T07:05:04.845Z,16.60
2018-06-01T07:07:32.324Z,20.73
2018-06-01T07:09:59.789Z,13.80
2018-06-01T07:12:27.257Z,20.40
2018-06-01T07:14:54.752Z,17.50
2018-06-01T07:17:22.230Z,18.00
2018-06-01T07:19:49.688Z,14.97
2018-06-01T07:22:17.179Z,15.10
2018-06-01T07:24:44.643Z,20.60
2018-06-01T07:27:12.104Z,14.70
2018-06-01T07:29:40.358Z,14.80
2018-06-01T07:32:07.836Z,16.90
2018-06-01T07:34:36.823Z,12.57
2018-06-01T07:37:04.296Z,19.80
2018-06-01T07:39:31.752Z,25.50
2018-06-01T07:41:59.241Z,14.70
2018-06-01T07:44:26.696Z,16.40
2018-06-01T07:46:54.249Z,15.33
2018-06-01T07:49:21.640Z,13.60
2018-06-01T07:51:49.119Z,14.90
2018-06-01T07:54:16.575Z,15.10
2018-06-01T07:56:44.033Z,19.10
2018-06-01T07:59:11.484Z,17.67
2018-06-01T08:01:38.971Z,13.00
2018-06-01T08:04:07.199Z,11.57
2018-06-01T08:06:34.686Z,14.20
2018-06-01T08:09:02.148Z,11.47
2018-06-01T08:11:29.616Z,15.13
2018-06-01T08:13:57.077Z,15.70
2018-06-01T08:16:24.536Z,19.83
2018-06-01T08:18:51.993Z,15.90
2018-06-01T08:21:19.452Z,21.07
2018-06-01T08:23:46.916Z,14.87
2018-06-01T08:26:14.369Z,11.43
2018-06-01T08:28:42.620Z,19.73
2018-06-01T08:31:10.081Z,10.80
2018-06-01T08:33:37.557Z,12.93
2018-06-01T08:36:05.022Z,10.67
2018-06-01T08:38:32.479Z,25.53
2018-06-01T08:41:00.779Z,13.80
2018-06-01T08:43:28.252Z,16.17
2018-06-01T08:45:55.763Z,11.10
2018-06-01T08:48:23.235Z,16.30
2018-06-01T08:50:50.705Z,17.53
2018-06-01T08:53:18.937Z,15.13
2018-06-01T08:55:46.394Z,12.13
2018-06-01T08:58:13.855Z,16.13
2018-06-01T09:00:41.320Z,14.60
2018-06-01T09:03:09.560Z,15.10
2018-06-01T09:05:37.020Z,13.03
2018-06-01T09:08:04.499Z,17.47
2018-06-01T09:10:31.957Z,13.53
2018-06-01T09:12:59.424Z,12.93
2018-06-01T09:15:26.884Z,11.63
2018-06-01T09:17:55.131Z,11.10
2018-06-01T09:20:22.606Z,17.20
2018-06-01T09:22:50.073Z,13.40
2018-06-01T09:25:17.537Z,10.77
2018-06-01T09:27:45.001Z,15.70
2018-06-01T09:30:12.457Z,11.33
2018-06-01T09:32:39.912Z,12.93
2018-06-01T09:35:07.368Z,18.03
2018-06-01T09:37:34.850Z,14.23
2018-06-01T09:40:03.075Z,11.43
2018-06-01T09:42:30.540Z,13.77
2018-06-01T09:44:58.116Z,16.97
2018-06-01T09:47:25.608Z,21.83
2018-06-01T09:49:53.832Z,24.13
2018-06-01T09:52:21.327Z,13.70
2018-06-01T09:54:48.753Z,10.97
2018-06-01T09:57:17.008Z,15.63
2018-06-01T09:59:45.232Z,12.73
2018-06-01T10:02:13.453Z,12.40
2018-06-01T10:04:40.920Z,10.97
2018-06-01T10:07:09.138Z,13.50
2018-06-01T10:09:36.588Z,10.40
2018-06-01T10:12:04.044Z,10.97
2018-06-01T10:14:31.523Z,14.23
2018-06-01T10:16:59.749Z,11.87
2018-06-01T10:19:27.216Z,11.37
2018-06-01T10:21:54.673Z,11.23
2018-06-01T10:24:22.128Z,10.90
2018-06-01T10:26:49.584Z,10.90
2018-06-01T10:29:17.046Z,20.37
2018-06-01T10:31:44.505Z,10.63
2018-06-01T10:34:11.960Z,12.60
2018-06-01T10:36:39.420Z,13.23
2018-06-01T10:39:06.900Z,11.27
2018-06-01T10:41:34.363Z,11.57
2018-06-01T10:44:02.599Z,11.30
2018-06-01T10:46:34.137Z,11.53
2018-06-01T10:49:01.617Z,11.50
2018-06-01T10:51:29.077Z,11.33
2018-06-01T10:53:56.539Z,12.50
2018-06-01T10:56:23.991Z,11.90
2018-06-01T10:58:52.268Z,11.43
2018-06-01T11:01:19.724Z,11.17
2018-06-01T11:03:47.180Z,10.63
2018-06-01T11:06:14.644Z,11.17
2018-06-01T11:08:42.104Z,12.60
2018-06-01T11:11:09.560Z,11.80
2018-06-01T11:13:37.030Z,11.50
2018-06-01T11:16:04.486Z,10.43
2018-06-01T11:18:31.945Z,10.13
2018-06-01T11:20:59.404Z,11.80
2018-06-01T11:23:26.859Z,16.00
2018-06-01T11:25:54.316Z,10.83
2018-06-01T11:28:21.780Z,12.00
2018-06-01T11:30:49.229Z,9.73
2018-06-01T11:33:16.693Z,11.43
2018-06-01T11:35:44.938Z,12.00
2018-06-01T11:38:12.405Z,13.20
2018-06-01T11:40:39.869Z,10.70
2018-06-01T11:43:07.316Z,11.07
2018-06-01T11:45:34.780Z,11.30
2018-06-01T11:48:02.248Z,10.00
2018-06-01T11:50:30.489Z,13.37
2018-06-01T11:52:57.962Z,13.13
2018-06-01T11:55:25.424Z,15.33
2018-06-01T11:57:52.931Z,10.43
2018-06-01T12:00:21.156Z,11.50
2018-06-01T12:02:48.623Z,10.63
2018-06-01T12:05:16.220Z,12.20
2018-06-01T12:07:44.469Z,12.20
2018-06-01T12:10:11.946Z,12.50
2018-06-01T12:12:39.401Z,12.50
2018-06-01T12:15:07.644Z,12.47
2018-06-01T12:17:35.150Z,11.53
2018-06-01T12:20:02.609Z,12.60
2018-06-01T12:22:30.836Z,12.47
2018-06-01T12:25:00.056Z,15.00
2018-06-01T12:27:28.282Z,14.77
2018-06-01T12:29:55.758Z,18.07
2018-06-01T12:32:24.874Z,14.40
2018-06-01T12:34:52.386Z,16.90
2018-06-01T12:37:20.601Z,19.67
2018-06-01T12:39:48.068Z,16.00
2018-06-01T12:42:15.563Z,16.03
2018-06-01T12:44:43.788Z,13.90
2018-06-01T12:47:11.244Z,19.60
2018-06-01T12:49:38.709Z,17.03
2018-06-01T12:52:06.183Z,15.90
2018-06-01T12:54:33.695Z,15.63
2018-06-01T12:57:01.159Z,17.13
2018-06-01T12:59:28.625Z,22.03
2018-06-01T13:01:56.085Z,23.10
2018-06-01T13:04:23.566Z,17.93
2018-06-01T13:06:51.024Z,17.57
2018-06-01T13:09:18.500Z,19.90
2018-06-01T13:11:45.968Z,20.53
2018-06-01T13:14:14.213Z,20.30
2018-06-01T13:16:41.666Z,18.00
2018-06-01T13:19:09.145Z,26.00
2018-06-01T13:21:36.600Z,26.57
2018-06-01T13:24:04.083Z,36.80
2018-06-01T13:26:32.304Z,41.13
2018-06-01T13:28:59.764Z,38.57
2018-06-01T13:31:27.238Z,36.10
2018-06-01T13:33:54.696Z,31.43
2018-06-01T13:36:22.157Z,26.30
2018-06-01T13:38:51.765Z,31.23
2018-06-01T13:41:19.591Z,27.00
2018-06-01T13:43:47.034Z,22.20
2018-06-01T13:46:14.500Z,19.83
2018-06-01T13:48:41.952Z,20.17
2018-06-01T13:51:09.563Z,22.27
2018-06-01T13:53:39.742Z,19.70
2018-06-01T13:56:07.432Z,21.43
2018-06-01T13:58:34.888Z,19.00
2018-06-01T14:01:02.429Z,24.60
2018-06-01T14:03:30.054Z,17.50
2018-06-01T14:05:59.715Z,13.83
2018-06-01T14:08:28.402Z,14.23
2018-06-01T14:10:59.086Z,14.53
2018-06-01T14:13:26.692Z,12.07
2018-06-01T14:15:54.176Z,16.43
2018-06-01T14:18:22.109Z,12.20
2018-06-01T14:20:51.301Z,12.70
2018-06-01T14:23:19.705Z,12.20
2018-06-01T14:25:47.172Z,12.97
2018-06-01T14:28:14.628Z,14.87
2018-06-01T14:30:42.090Z,11.37
2018-06-01T14:33:09.607Z,12.47
2018-06-01T14:35:37.020Z,11.90
2018-06-01T14:38:05.993Z,12.50
2018-06-01T14:40:33.540Z,11.70
2018-06-01T14:43:01.019Z,10.83
2018-06-01T14:45:31.948Z,10.83
2018-06-01T14:48:01.283Z,10.90
2018-06-01T14:50:29.826Z,10.83
2018-06-01T14:52:57.391Z,12.07
2018-06-01T14:55:24.881Z,10.43
2018-06-01T14:57:53.937Z,10.73
2018-06-01T15:00:21.450Z,9.60
2018-06-01T15:02:48.909Z,10.10
2018-06-01T15:05:16.382Z,9.10
2018-06-01T15:07:43.908Z,9.47
2018-06-01T15:10:13.233Z,9.87
2018-06-01T15:12:41.521Z,11.30
2018-06-01T15:15:09.015Z,10.80
2018-06-01T15:17:36.471Z,12.63
2018-06-01T15:20:05.125Z,10.87
2018-06-01T15:22:32.581Z,10.87
2018-06-01T15:25:00.072Z,12.17
2018-06-01T15:27:27.541Z,9.93
2018-06-01T15:29:55.004Z,12.13
2018-06-01T15:32:27.267Z,12.07
2018-06-01T15:34:54.719Z,10.40
2018-06-01T15:37:22.420Z,10.53
2018-06-01T15:39:50.644Z,11.93
2018-06-01T15:42:18.660Z,12.17
2018-06-01T15:44:47.010Z,11.40
2018-06-01T15:47:14.468Z,12.47
2018-06-01T15:49:41.925Z,12.00
2018-06-01T15:52:09.388Z,11.87
2018-06-01T15:54:37.138Z,12.60
2018-06-01T15:57:05.326Z,14.07
2018-06-01T15:59:32.832Z,13.50
2018-06-01T16:02:01.056Z,13.07
2018-06-01T16:04:28.508Z,13.33
2018-06-01T16:06:56.062Z,13.10
2018-06-01T16:09:23.562Z,13.50
2018-06-01T16:11:51.804Z,13.73
2018-06-01T16:14:19.264Z,15.30
2018-06-01T16:16:46.829Z,14.80
2018-06-01T16:19:14.376Z,16.93
2018-06-01T16:21:41.944Z,14.20
2018-06-01T16:24:09.401Z,14.23
2018-06-01T16:26:36.858Z,17.03
2018-06-01T16:29:04.325Z,16.73
2018-06-01T16:31:31.805Z,19.30
2018-06-01T16:33:59.299Z,16.53
2018-06-01T16:36:26.769Z,18.70
2018-06-01T16:38:54.224Z,21.53
2018-06-01T16:41:21.770Z,16.47
2018-06-01T16:43:49.342Z,21.40
2018-06-01T16:46:16.876Z,18.17
2018-06-01T16:48:45.203Z,19.50
2018-06-01T16:51:12.753Z,17.90
2018-06-01T16:53:40.381Z,21.23
2018-06-01T16:56:11.259Z,19.57
2018-06-01T16:58:39.734Z,20.13
2018-06-01T17:01:07.271Z,22.57
2018-06-01T17:03:34.843Z,21.93
2018-06-01T17:06:02.399Z,21.80
2018-06-01T17:08:29.933Z,21.67
2018-06-01T17:10:57.429Z,22.67
2018-06-01T17:13:24.888Z,19.93
2018-06-01T17:15:52.343Z,23.50
2018-06-01T17:18:19.838Z,20.00
2018-06-01T17:20:47.369Z,20.73
2018-06-01T17:23:14.868Z,26.50
2018-06-01T17:25:43.129Z,19.53
2018-06-01T17:28:10.717Z,16.70
2018-06-01T17:30:38.932Z,19.80
2018-06-01T17:33:06.409Z,17.87
2018-06-01T17:35:33.925Z,19.70
2018-06-01T17:38:01.385Z,20.03
2018-06-01T17:40:28.868Z,19.47
2018-06-01T17:42:56.324Z,25.57
2018-06-01T17:45:23.785Z,22.17
2018-06-01T17:47:52.261Z,24.73
2018-06-01T17:50:19.723Z,23.43
2018-06-01T17:52:47.242Z,30.93
2018-06-01T17:55:15.467Z,22.83
2018-06-01T17:57:42.924Z,30.90
2018-06-01T18:00:10.388Z,26.33
2018-06-01T18:02:37.857Z,35.00
2018-06-01T18:05:05.329Z,26.20
2018-06-01T18:07:32.795Z,23.83
2018-06-01T18:10:01.028Z,24.10
2018-06-01T18:12:28.511Z,17.07
2018-06-01T18:14:56.032Z,23.87
2018-06-01T18:17:23.503Z,19.90
2018-06-01T18:19:50.968Z,21.03
2018-06-01T18:22:18.474Z,16.27
2018-06-01T18:24:45.932Z,27.07
2018-06-01T18:27:14.239Z,24.13
2018-06-01T18:29:41.908Z,22.33
2018-06-01T18:32:09.368Z,21.07
2018-06-01T18:34:36.834Z,20.80
2018-06-01T18:37:04.296Z,22.50
2018-06-01T18:39:31.773Z,21.07
2018-06-01T18:41:59.249Z,22.03
2018-06-01T18:44:26.716Z,25.50
2018-06-01T18:46:54.223Z,27.63
2018-06-01T18:49:21.731Z,23.37
2018-06-01T18:51:49.978Z,18.87
2018-06-01T18:54:17.496Z,25.87
2018-06-01T18:56:44.963Z,26.10
2018-06-01T18:59:12.426Z,27.30
2018-06-01T19:01:39.913Z,22.67
2018-06-01T19:04:07.381Z,20.50
2018-06-01T19:06:36.349Z,26.07
2018-06-01T19:09:03.850Z,26.37
2018-06-01T19:11:31.292Z,27.47
2018-06-01T19:13:58.752Z,28.67
2018-06-01T19:16:26.258Z,32.77
2018-06-01T19:18:53.721Z,30.03
2018-06-01T19:21:21.188Z,28.07
2018-06-01T19:23:48.682Z,27.03
2018-06-01T19:26:16.129Z,31.10
2018-06-01T19:28:43.594Z,29.87
2018-06-01T19:31:12.576Z,33.17
2018-06-01T19:33:40.048Z,33.07
2018-06-01T19:36:07.522Z,46.33
2018-06-01T19:38:37.664Z,30.80
2018-06-01T19:41:05.155Z,24.90
2018-06-01T19:43:32.671Z,26.70
2018-06-01T19:46:00.164Z,31.40
2018-06-01T19:48:27.673Z,36.90
2018-06-01T19:50:55.935Z,29.63
2018-06-01T19:53:23.434Z,27.47
2018-06-01T19:55:50.929Z,29.90
2018-06-01T19:58:18.407Z,28.27
2018-06-01T20:00:45.874Z,29.80
2018-06-01T20:03:14.186Z,19.07
2018-06-01T20:05:41.698Z,20.73
2018-06-01T20:08:09.210Z,24.83
2018-06-01T20:10:36.793Z,23.10
2018-06-01T20:13:04.327Z,37.40
2018-06-01T20:15:32.567Z,27.20
2018-06-01T20:18:00.845Z,35.33
2018-06-01T20:20:29.128Z,35.27
2018-06-01T20:22:57.386Z,33.20
2018-06-01T20:25:25.628Z,34.60
2018-06-01T20:27:53.113Z,36.80
2018-06-01T20:30:20.596Z,36.30
2018-06-01T20:32:48.849Z,36.93
2018-06-01T20:35:16.321Z,38.63
2018-06-01T20:37:44.587Z,34.27
2018-06-01T20:40:12.190Z,38.80
2018-06-01T20:42:39.708Z,33.63
2018-06-01T20:45:07.203Z,36.17
2018-06-01T20:47:35.443Z,36.17
2018-06-01T20:50:02.919Z,36.20
2018-06-01T20:52:31.182Z,40.83
2018-06-01T20:54:59.443Z,33.17
2018-06-01T20:57:26.980Z,31.00
2018-06-01T20:59:55.285Z,24.43
2018-06-01T21:02:22.798Z,22.67
2018-06-01T21:04:50.320Z,25.77
2018-06-01T21:07:18.601Z,21.50
2018-06-01T21:09:46.202Z,19.13
2018-06-01T21:12:14.533Z,18.80
2018-06-01T21:14:42.064Z,17.60
2018-06-01T21:17:09.557Z,17.50
2018-06-01T21:19:37.870Z,19.20
2018-06-01T21:22:05.366Z,15.33
2018-06-01T21:24:32.838Z,18.33
2018-06-01T21:27:01.158Z,16.60
2018-06-01T21:29:28.660Z,15.43
2018-06-01T21:31:56.116Z,17.17
2018-06-01T21:34:23.655Z,14.53
2018-06-01T21:36:51.152Z,15.03
2018-06-01T21:39:19.411Z,13.00
2018-06-01T21:41:47.684Z,14.43
2018-06-01T21:44:15.231Z,14.27
2018-06-01T21:46:42.756Z,12.33
2018-06-01T21:49:10.225Z,12.40
2018-06-01T21:51:37.694Z,12.70
2018-06-01T21:54:05.161Z,17.50
2018-06-01T21:56:32.620Z,12.87
2018-06-01T21:59:00.157Z,11.50
2018-06-01T22:01:27.576Z,12.30
2018-06-01T22:03:55.059Z,13.30
2018-06-01T22:06:22.517Z,12.77
2018-06-01T22:08:49.984Z,12.57
2018-06-01T22:11:17.455Z,13.93
2018-06-01T22:13:44.938Z,12.57
2018-06-01T22:16:12.428Z,13.63
2018-06-01T22:18:39.869Z,13.87
2018-06-01T22:21:07.329Z,13.30
2018-06-01T22:23:34.796Z,12.53
2018-06-01T22:26:03.051Z,13.43
2018-06-01T22:28:31.293Z,13.80
2018-06-01T22:30:58.752Z,12.37
2018-06-01T22:33:26.215Z,12.83
2018-06-01T22:35:53.677Z,13.70
2018-06-01T22:38:21.159Z,14.10
2018-06-01T22:40:48.612Z,11.43
2018-06-01T22:43:16.083Z,12.47
2018-06-01T22:45:44.343Z,12.30
2018-06-01T22:48:11.908Z,12.73
2018-06-01T22:50:39.390Z,15.03
2018-06-01T22:53:06.862Z,12.37
2018-06-01T22:55:34.333Z,12.37
2018-06-01T22:58:01.808Z,13.10
2018-06-01T23:00:33.052Z,12.63
2018-06-01T23:03:00.510Z,12.93
2018-06-01T23:05:27.993Z,12.73
2018-06-01T23:07:55.464Z,11.90
2018-06-01T23:10:22.923Z,13.10
2018-06-01T23:12:50.385Z,13.43
2018-06-01T23:15:17.856Z,12.23
2018-06-01T23:17:46.080Z,11.97
2018-06-01T23:20:14.318Z,12.37
2018-06-01T23:22:42.532Z,12.33
2018-06-01T23:25:10.003Z,13.13
2018-06-01T23:27:37.473Z,12.27
2018-06-01T23:30:04.942Z,12.33
2018-06-01T23:32:32.410Z,12.20
2018-06-01T23:34:59.881Z,13.57
2018-06-01T23:37:28.100Z,11.60
2018-06-01T23:39:55.576Z,11.80
2018-06-01T23:42:23.051Z,12.17
2018-06-01T23:44:50.516Z,11.23
2018-06-01T23:47:17.977Z,10.90
2018-06-01T23:49:45.457Z,11.80
2018-06-01T23:52:13.677Z,11.40
2018-06-01T23:54:41.140Z,10.80
2018-06-01T23:57:08.660Z,11.87
2018-06-01T23:59:36.126Z,11.63
